Rochester, Michigan
Current Conditions -  °F | °C
As of 10:55 PM on Thursday 18 Dec 2014 (Local Time) from KVLL Reporting Station
Overcast Overcast  
Wind Chill: 24°   Ceiling: 2300
Heat Index: 31°   Visibility: 10mi
Dew Point: 27°   Wind: 7mph
Humidity: 85%   Direction: 360°N
Pressure: 30.2"   Gusts: NA
Location:  42.68°N, 83.14°W
Report Text: KVLL 190355Z AUTO 36006KT 10SM SCT010 SCT014 OVC023 00/M03 A3020 RMK AO2 T10051027
Loading
Personal Weather Stations






























Interactive Weather Map New forecast layout! Learn more

10-Day Weather Forecast

Advertisements
Track Severe Weather on mobile